Time;durP1;ratioP1;P1;durP2;ratioP2;P2;SDS_P1;SDS_P2;PMS_P1;PMS_P2;Temp;Humidity;BMP_temperature;BMP_pressure;BME280_temperature;BME280_humidity;BME280_pressure;Samples;Min_cycle;Max_cycle;Signal;HPM_P1;HPM_P2
2023/08/22 00:02:59;;;;;;;9.50;8.15;;;25.20;99.90;;;;;;6245139;28;87975;-72
2023/08/22 00:06:01;;;;;;;9.07;8.20;;;25.20;99.90;;;;;;6233550;28;89348;-72
2023/08/22 00:09:04;;;;;;;8.73;7.93;;;25.20;99.90;;;;;;6232191;28;89303;-72
2023/08/22 00:12:07;;;;;;;8.57;7.78;;;25.10;99.90;;;;;;6244648;28;88550;-72
2023/08/22 00:15:10;;;;;;;8.50;7.70;;;25.20;99.90;;;;;;6245253;28;89445;-72
2023/08/22 00:18:14;;;;;;;9.02;8.13;;;25.20;99.90;;;;;;6232320;28;89314;-71
2023/08/22 00:21:16;;;;;;;9.15;8.23;;;25.10;99.90;;;;;;6241604;28;90073;-72
2023/08/22 00:24:18;;;;;;;9.30;8.38;;;25.10;99.90;;;;;;6246922;28;89232;-72
2023/08/22 00:27:20;;;;;;;10.73;8.90;;;25.10;99.90;;;;;;6249752;28;89140;-72
2023/08/22 00:30:21;;;;;;;10.27;8.85;;;25.00;99.90;;;;;;6244609;28;89236;-71
2023/08/22 00:33:25;;;;;;;9.60;8.70;;;25.00;99.90;;;;;;6232273;28;89104;-71
2023/08/22 00:36:27;;;;;;;9.48;8.57;;;25.00;99.90;;;;;;6249055;28;89052;-71
2023/08/22 00:39:29;;;;;;;9.70;8.73;;;24.90;99.90;;;;;;6241985;28;89100;-72
2023/08/22 00:42:31;;;;;;;9.35;8.45;;;24.90;99.90;;;;;;6232094;28;88404;-72
2023/08/22 00:45:33;;;;;;;9.63;8.63;;;24.90;99.90;;;;;;6242534;28;89122;-72
2023/08/22 00:48:37;;;;;;;10.63;8.10;;;24.90;99.90;;;;;;6244368;28;89065;-72
2023/08/22 00:51:40;;;;;;;9.65;8.80;;;24.90;99.90;;;;;;6253838;28;90006;-72
2023/08/22 00:54:43;;;;;;;10.50;8.65;;;24.90;99.90;;;;;;6250526;28;89103;-72
2023/08/22 00:57:45;;;;;;;9.57;8.57;;;24.90;99.90;;;;;;6245822;28;88937;-72
2023/08/22 01:00:47;;;;;;;11.23;9.13;;;24.90;99.90;;;;;;6230878;28;88943;-71
2023/08/22 01:03:50;;;;;;;9.13;8.23;;;24.80;99.90;;;;;;6248697;28;89095;-71
2023/08/22 01:06:57;;;;;;;10.07;9.07;;;24.90;99.90;;;;;;6251525;28;87981;-72
2023/08/22 01:10:07;;;;;;;9.57;8.77;;;24.90;99.90;;;;;;6249053;27;89081;-72
2023/08/22 01:13:15;;;;;;;9.73;8.70;;;24.90;99.90;;;;;;6255022;28;88285;-72
2023/08/22 01:16:19;;;;;;;10.45;9.45;;;24.90;99.90;;;;;;6255752;27;89341;-72
2023/08/22 01:19:22;;;;;;;9.57;8.63;;;24.90;99.90;;;;;;6242300;28;87999;-72
2023/08/22 01:22:27;;;;;;;9.70;8.70;;;24.80;99.90;;;;;;6247631;28;90042;-72
2023/08/22 01:25:30;;;;;;;9.70;8.80;;;24.80;99.90;;;;;;6249665;28;88251;-72
2023/08/22 01:28:37;;;;;;;9.80;8.88;;;24.80;99.90;;;;;;6255638;27;88264;-71
2023/08/22 01:31:46;;;;;;;10.18;8.75;;;24.80;99.90;;;;;;6257575;27;89391;-71
2023/08/22 01:34:50;;;;;;;9.85;8.93;;;24.70;99.90;;;;;;6243945;28;89015;-72
2023/08/22 01:37:55;;;;;;;9.77;8.95;;;24.70;99.90;;;;;;6238717;28;89078;-71
2023/08/22 01:40:58;;;;;;;9.75;8.68;;;24.70;99.90;;;;;;6246071;28;89091;-72
2023/08/22 01:44:01;;;;;;;10.05;8.95;;;24.70;99.90;;;;;;6262277;28;88710;-72
2023/08/22 01:47:03;;;;;;;9.85;8.95;;;24.70;99.90;;;;;;6242466;27;89310;-72
2023/08/22 01:50:06;;;;;;;10.00;9.10;;;24.70;99.90;;;;;;6239557;27;89026;-72
2023/08/22 01:53:09;;;;;;;9.82;8.93;;;24.70;99.90;;;;;;6252205;27;88931;-71
2023/08/22 01:56:11;;;;;;;9.10;8.20;;;24.70;99.90;;;;;;6246577;28;89008;-71
2023/08/22 01:59:13;;;;;;;9.40;8.60;;;24.80;99.90;;;;;;6258727;27;89069;-72
2023/08/22 02:02:15;;;;;;;12.15;8.88;;;24.70;99.90;;;;;;6253285;27;89098;-72
2023/08/22 02:05:17;;;;;;;11.18;8.70;;;24.70;99.90;;;;;;6256257;28;89169;-71
2023/08/22 02:08:20;;;;;;;9.43;8.60;;;24.70;99.90;;;;;;6249628;28;89011;-73
2023/08/22 02:11:22;;;;;;;9.70;8.73;;;24.70;99.90;;;;;;6245243;28;89046;-73
2023/08/22 02:14:24;;;;;;;10.13;8.55;;;24.60;99.90;;;;;;6251582;28;88426;-73
2023/08/22 02:17:26;;;;;;;9.77;8.77;;;24.60;99.90;;;;;;6240690;28;89092;-72
2023/08/22 02:20:29;;;;;;;9.25;8.45;;;24.60;99.90;;;;;;6253762;27;89016;-73
2023/08/22 02:23:32;;;;;;;9.60;8.70;;;24.60;99.90;;;;;;6252221;28;90095;-72
2023/08/22 02:26:34;;;;;;;10.00;8.95;;;24.60;99.90;;;;;;6256085;27;89069;-72
2023/08/22 02:29:36;;;;;;;10.07;8.68;;;24.60;99.90;;;;;;6249256;27;88995;-72
2023/08/22 02:32:39;;;;;;;9.20;8.20;;;24.60;99.90;;;;;;6245951;27;89495;-72
2023/08/22 02:35:41;;;;;;;9.88;8.88;;;24.60;99.90;;;;;;6246619;28;89073;-73
2023/08/22 02:38:44;;;;;;;9.07;8.27;;;24.60;99.90;;;;;;6245314;28;89019;-73
2023/08/22 02:41:46;;;;;;;10.57;8.15;;;24.50;99.90;;;;;;6240397;28;89376;-73
2023/08/22 02:44:48;;;;;;;8.93;8.18;;;24.50;99.90;;;;;;6245442;28;88255;-72
2023/08/22 02:47:50;;;;;;;10.23;8.60;;;24.50;99.90;;;;;;6247886;28;89022;-72
2023/08/22 02:50:52;;;;;;;9.60;8.57;;;24.40;99.90;;;;;;6235147;28;88483;-72
2023/08/22 02:53:56;;;;;;;8.82;8.02;;;24.40;99.90;;;;;;6245878;28;91072;-72
2023/08/22 02:56:58;;;;;;;8.95;8.05;;;24.40;99.90;;;;;;6253147;27;89332;-72
2023/08/22 03:00:00;;;;;;;9.35;8.18;;;24.30;99.90;;;;;;6243116;28;88984;-72
2023/08/22 03:03:02;;;;;;;9.05;8.23;;;24.30;99.90;;;;;;6240338;28;88277;-73
2023/08/22 03:06:05;;;;;;;8.95;8.18;;;24.30;99.90;;;;;;6242578;28;89067;-73
2023/08/22 03:09:08;;;;;;;9.50;8.48;;;24.30;99.90;;;;;;6234808;28;89128;-73
2023/08/22 03:12:10;;;;;;;9.35;8.43;;;24.30;99.90;;;;;;6245146;28;88999;-72
2023/08/22 03:15:12;;;;;;;9.25;8.35;;;24.30;99.90;;;;;;6258807;28;88323;-72
2023/08/22 03:18:14;;;;;;;9.32;8.48;;;24.20;99.90;;;;;;6244500;28;90093;-72
2023/08/22 03:21:16;;;;;;;9.10;8.30;;;24.30;99.90;;;;;;6256260;28;89949;-73
2023/08/22 03:24:20;;;;;;;8.63;7.82;;;24.30;99.90;;;;;;6247545;27;89933;-72
2023/08/22 03:27:22;;;;;;;9.27;8.32;;;24.30;99.90;;;;;;6239974;28;89021;-72
2023/08/22 03:30:24;;;;;;;9.27;8.38;;;24.30;99.90;;;;;;6246717;27;89034;-72
2023/08/22 03:33:26;;;;;;;9.68;8.52;;;24.30;99.90;;;;;;6235697;28;89061;-72
2023/08/22 03:36:28;;;;;;;9.43;8.38;;;24.30;99.90;;;;;;6250123;28;88999;-72
2023/08/22 03:39:32;;;;;;;10.10;8.43;;;24.20;99.90;;;;;;6237456;28;89127;-72
2023/08/22 03:42:34;;;;;;;9.18;8.27;;;24.20;99.90;;;;;;6256657;27;89474;-72
2023/08/22 03:45:35;;;;;;;9.40;8.27;;;24.20;99.90;;;;;;6242067;28;88457;-72
2023/08/22 03:48:38;;;;;;;9.57;8.57;;;24.20;99.90;;;;;;6233439;28;89037;-72
2023/08/22 03:51:39;;;;;;;9.43;8.45;;;24.20;99.90;;;;;;6234363;28;88985;-72
2023/08/22 03:54:43;;;;;;;11.75;8.43;;;24.20;99.90;;;;;;6255083;27;90062;-72
2023/08/22 03:57:45;;;;;;;8.88;8.07;;;24.20;99.90;;;;;;6239367;28;89000;-72
2023/08/22 04:00:47;;;;;;;10.10;8.90;;;24.10;99.90;;;;;;6232616;28;89484;-71
2023/08/22 04:03:49;;;;;;;9.82;8.40;;;24.10;99.90;;;;;;6237313;28;89148;-72
2023/08/22 04:06:51;;;;;;;8.95;8.15;;;24.20;99.90;;;;;;6247875;27;89419;-72
2023/08/22 04:09:54;;;;;;;9.30;8.52;;;24.20;99.90;;;;;;6247450;28;89292;-71
2023/08/22 04:12:56;;;;;;;9.48;8.57;;;24.40;99.90;;;;;;6246613;28;89487;-71
2023/08/22 04:15:58;;;;;;;10.15;9.23;;;24.40;99.90;;;;;;6251300;28;88655;-70
2023/08/22 04:19:00;;;;;;;9.77;8.75;;;24.60;99.90;;;;;;6241743;28;89290;-71
2023/08/22 04:22:02;;;;;;;9.93;8.35;;;24.70;99.90;;;;;;6244985;28;89042;-70
2023/08/22 04:25:06;;;;;;;9.13;8.10;;;24.80;99.90;;;;;;6246793;28;90006;-70
2023/08/22 04:28:08;;;;;;;9.18;8.30;;;24.90;99.90;;;;;;6247413;28;88993;-71
2023/08/22 04:31:10;;;;;;;9.25;8.35;;;25.00;99.90;;;;;;6240105;27;88998;-71
2023/08/22 04:34:12;;;;;;;10.82;9.35;;;25.00;99.90;;;;;;6246532;28;90147;-71
2023/08/22 04:37:14;;;;;;;15.10;9.73;;;25.00;99.90;;;;;;6249722;28;89061;-71
2023/08/22 04:40:17;;;;;;;13.30;9.90;;;25.10;99.90;;;;;;6234820;28;88968;-71
2023/08/22 04:43:19;;;;;;;13.13;9.35;;;25.10;99.90;;;;;;6240246;28;89411;-71
2023/08/22 04:46:21;;;;;;;11.35;8.85;;;25.10;99.90;;;;;;6246909;28;87214;-71
2023/08/22 04:49:24;;;;;;;10.77;9.00;;;25.20;99.90;;;;;;6238268;28;89106;-71
2023/08/22 04:52:26;;;;;;;10.88;8.93;;;25.20;99.90;;;;;;6236488;28;89382;-71
2023/08/22 04:55:29;;;;;;;10.15;9.10;;;25.20;99.90;;;;;;6239280;28;89688;-71
2023/08/22 04:58:31;;;;;;;8.88;7.93;;;25.20;99.90;;;;;;6248119;28;89292;-71
2023/08/22 05:01:33;;;;;;;8.75;7.95;;;25.20;99.90;;;;;;6243340;28;88518;-70
2023/08/22 05:04:35;;;;;;;8.95;8.05;;;25.30;99.90;;;;;;6242141;27;89199;-71
2023/08/22 05:07:37;;;;;;;9.05;7.82;;;25.30;99.90;;;;;;6238937;28;89122;-70
2023/08/22 05:10:40;;;;;;;8.90;8.00;;;25.30;99.90;;;;;;6247464;27;89059;-70
2023/08/22 05:13:42;;;;;;;9.52;8.20;;;25.40;99.90;;;;;;6240747;28;89383;-70
2023/08/22 05:16:44;;;;;;;9.10;8.20;;;25.40;99.90;;;;;;6236157;28;88223;-70
2023/08/22 05:19:46;;;;;;;8.85;7.45;;;25.40;99.90;;;;;;6240739;28;89006;-71
2023/08/22 05:22:48;;;;;;;8.68;7.88;;;25.50;99.90;;;;;;6234192;28;88896;-71
2023/08/22 05:25:54;;;;;;;8.40;7.55;;;25.50;99.90;;;;;;6229688;28;89680;-71
2023/08/22 05:28:56;;;;;;;10.35;7.70;;;25.50;99.90;;;;;;6236669;28;89202;-70
2023/08/22 05:31:58;;;;;;;8.80;7.97;;;25.50;99.90;;;;;;6248012;27;89961;-70
2023/08/22 05:35:00;;;;;;;9.00;8.13;;;25.50;99.90;;;;;;6245547;27;89288;-70
2023/08/22 05:38:02;;;;;;;8.57;7.82;;;25.60;99.90;;;;;;6230902;28;89188;-70
2023/08/22 05:41:05;;;;;;;8.65;7.85;;;25.60;99.90;;;;;;6230261;28;89083;-70
2023/08/22 05:44:07;;;;;;;8.98;7.93;;;25.60;99.90;;;;;;6230015;28;89079;-71
2023/08/22 05:47:10;;;;;;;9.40;7.90;;;25.60;99.90;;;;;;6231295;28;87896;-71
2023/08/22 05:50:13;;;;;;;9.65;8.65;;;25.70;99.90;;;;;;6230695;28;89036;-71
2023/08/22 05:53:15;;;;;;;8.85;8.00;;;25.70;99.90;;;;;;6230960;28;89439;-70
2023/08/22 05:56:18;;;;;;;9.18;8.15;;;25.70;99.90;;;;;;6239455;28;90068;-70
2023/08/22 05:59:20;;;;;;;10.50;8.43;;;25.70;99.90;;;;;;6238909;27;88042;-70
2023/08/22 06:02:22;;;;;;;28.30;10.57;;;25.70;99.90;;;;;;6244034;28;91488;-70
2023/08/22 06:05:24;;;;;;;36.65;11.75;;;25.70;99.90;;;;;;6242238;28;89049;-71
2023/08/22 06:08:26;;;;;;;38.47;12.38;;;25.70;99.90;;;;;;6236406;27;89169;-70
2023/08/22 06:11:29;;;;;;;37.40;11.95;;;25.70;99.90;;;;;;6248364;28;89180;-69
2023/08/22 06:14:31;;;;;;;35.53;12.23;;;25.80;99.90;;;;;;6237060;28;87992;-69
2023/08/22 06:17:34;;;;;;;33.92;11.07;;;25.80;99.90;;;;;;6251662;28;88671;-69
2023/08/22 06:20:41;;;;;;;27.48;10.38;;;25.80;99.90;;;;;;6243164;28;89215;-70
2023/08/22 06:23:43;;;;;;;25.35;10.25;;;25.80;99.90;;;;;;6232858;28;89181;-69
2023/08/22 06:26:48;;;;;;;22.83;9.60;;;25.70;99.90;;;;;;6233351;28;90488;-67
2023/08/22 06:29:50;;;;;;;19.27;9.40;;;25.80;99.90;;;;;;6243516;27;89072;-69
2023/08/22 06:32:51;;;;;;;24.58;10.27;;;25.80;99.90;;;;;;6232776;28;89305;-69
2023/08/22 06:35:54;;;;;;;19.90;9.68;;;25.80;99.90;;;;;;6248341;28;89139;-70
2023/08/22 06:38:57;;;;;;;17.58;9.45;;;25.80;99.90;;;;;;6238817;28;90219;-68
2023/08/22 06:42:00;;;;;;;17.77;9.57;;;25.80;99.90;;;;;;6243135;28;89211;-69
2023/08/22 06:45:02;;;;;;;16.48;9.63;;;25.80;99.90;;;;;;6237339;28;89101;-69
2023/08/22 06:48:05;;;;;;;18.42;9.10;;;25.80;99.90;;;;;;6235437;28;88531;-68
2023/08/22 06:51:07;;;;;;;15.13;9.05;;;25.80;99.90;;;;;;6259140;27;89134;-69
2023/08/22 06:54:09;;;;;;;14.25;8.70;;;25.90;99.90;;;;;;6236444;28;88245;-68
2023/08/22 06:57:12;;;;;;;12.70;8.70;;;25.90;99.90;;;;;;6236782;28;89992;-69
2023/08/22 07:00:16;;;;;;;11.35;8.02;;;25.90;99.90;;;;;;6251819;27;89013;-68
2023/08/22 07:03:18;;;;;;;11.95;8.73;;;25.80;99.90;;;;;;6241500;28;89101;-69
2023/08/22 07:06:20;;;;;;;12.43;8.32;;;25.90;99.90;;;;;;6234579;28;89454;-68
2023/08/22 07:09:22;;;;;;;11.48;8.63;;;25.90;99.90;;;;;;6246992;28;89089;-67
2023/08/22 07:12:25;;;;;;;11.90;8.68;;;25.90;99.90;;;;;;6253068;28;89028;-68
2023/08/22 07:15:27;;;;;;;11.75;8.38;;;25.90;99.90;;;;;;6241361;27;89115;-68
2023/08/22 07:18:29;;;;;;;16.70;8.68;;;26.00;99.90;;;;;;6252091;27;88292;-68
2023/08/22 07:21:31;;;;;;;14.07;8.50;;;26.00;99.90;;;;;;6249250;27;89348;-68
2023/08/22 07:24:33;;;;;;;12.48;8.13;;;26.00;99.90;;;;;;6249989;27;89147;-68
2023/08/22 07:27:36;;;;;;;11.95;8.43;;;26.00;99.90;;;;;;6239012;27;89966;-68
2023/08/22 07:30:38;;;;;;;12.20;8.32;;;26.00;99.90;;;;;;6248301;27;89105;-68
2023/08/22 07:33:40;;;;;;;12.07;8.18;;;26.00;99.90;;;;;;6239587;27;89187;-68
2023/08/22 07:36:42;;;;;;;8.98;7.65;;;26.00;99.90;;;;;;6239517;27;87862;-68
2023/08/22 07:39:45;;;;;;;9.85;8.20;;;26.10;99.90;;;;;;6241789;27;89028;-66
2023/08/22 07:42:48;;;;;;;9.93;8.07;;;26.00;99.90;;;;;;6236247;27;88272;-68
2023/08/22 07:45:50;;;;;;;11.52;8.68;;;26.10;99.90;;;;;;6246310;27;89075;-68
2023/08/22 07:48:52;;;;;;;9.35;7.35;;;26.10;99.90;;;;;;6243594;27;88466;-68
2023/08/22 07:51:54;;;;;;;8.18;7.38;;;26.10;99.90;;;;;;6235432;27;89052;-68
2023/08/22 07:54:56;;;;;;;11.45;7.97;;;26.10;99.90;;;;;;6241467;27;89149;-68
2023/08/22 07:57:59;;;;;;;8.38;7.53;;;26.10;99.90;;;;;;6246206;27;90086;-68
2023/08/22 08:01:05;;;;;;;10.48;8.00;;;26.10;99.90;;;;;;6252798;27;89093;-68
2023/08/22 08:04:08;;;;;;;9.65;7.90;;;26.10;99.90;;;;;;6244327;27;89326;-68
2023/08/22 08:07:10;;;;;;;8.50;7.50;;;26.10;99.90;;;;;;6249742;27;89192;-68
2023/08/22 08:10:12;;;;;;;10.20;7.78;;;26.10;99.90;;;;;;6253070;27;89000;-68
2023/08/22 08:13:15;;;;;;;8.80;7.90;;;26.10;99.90;;;;;;6246021;27;89419;-68
2023/08/22 08:16:17;;;;;;;9.23;7.80;;;26.10;99.90;;;;;;6253100;27;89079;-68
2023/08/22 08:19:24;;;;;;;8.93;7.75;;;26.10;99.90;;;;;;6254419;27;88426;-68
2023/08/22 08:22:26;;;;;;;10.43;7.85;;;26.10;99.90;;;;;;6250389;28;89750;-68
2023/08/22 08:25:28;;;;;;;9.48;7.07;;;26.10;99.90;;;;;;6243029;28;89128;-68
2023/08/22 08:28:32;;;;;;;8.65;7.78;;;26.10;99.90;;;;;;6234931;28;90110;-68
2023/08/22 08:31:34;;;;;;;8.65;7.50;;;26.20;99.90;;;;;;6236986;28;88278;-68
2023/08/22 08:34:36;;;;;;;10.45;7.35;;;26.20;99.90;;;;;;6247604;27;89521;-68
2023/08/22 08:37:38;;;;;;;9.80;7.57;;;26.20;99.90;;;;;;6247828;27;89039;-68
2023/08/22 08:40:42;;;;;;;8.38;7.47;;;26.20;99.90;;;;;;6246032;28;88904;-68
2023/08/22 08:43:47;;;;;;;10.10;8.20;;;26.20;99.90;;;;;;6240596;28;89441;-68
2023/08/22 08:46:50;;;;;;;9.45;8.02;;;26.20;99.90;;;;;;6240987;27;89530;-68
2023/08/22 08:49:54;;;;;;;9.48;8.00;;;26.20;99.90;;;;;;6243982;28;88302;-68
2023/08/22 08:52:56;;;;;;;9.20;7.80;;;26.20;99.90;;;;;;6240405;28;89248;-68
2023/08/22 08:55:58;;;;;;;8.40;7.53;;;26.20;99.90;;;;;;6231310;28;89027;-67
2023/08/22 08:59:02;;;;;;;8.90;7.80;;;26.20;99.90;;;;;;6241241;28;91562;-68
2023/08/22 09:02:05;;;;;;;9.07;7.47;;;26.20;99.90;;;;;;6230250;28;89449;-68
2023/08/22 09:05:07;;;;;;;8.48;7.53;;;26.20;99.90;;;;;;6244467;28;89393;-68
2023/08/22 09:08:17;;;;;;;8.88;7.50;;;26.20;99.90;;;;;;6233261;28;89336;-68
2023/08/22 09:11:27;;;;;;;8.95;7.72;;;26.20;99.90;;;;;;6254132;28;89317;-68
2023/08/22 09:14:52;;;;;;;9.55;7.82;;;26.20;99.90;;;;;;6246777;28;89320;-68
2023/08/22 09:17:55;;;;;;;8.70;7.70;;;26.20;99.90;;;;;;6171886;28;89198;-68
2023/08/22 09:21:04;;;;;;;8.90;7.45;;;26.20;99.90;;;;;;6243667;28;88436;-68
2023/08/22 09:24:08;;;;;;;8.55;7.68;;;26.20;99.90;;;;;;6241023;28;89198;-68
2023/08/22 09:27:10;;;;;;;8.60;7.65;;;26.30;99.90;;;;;;6230329;28;89086;-68
2023/08/22 09:30:15;;;;;;;9.88;7.65;;;26.30;99.90;;;;;;6234412;28;89987;-68
2023/08/22 09:33:18;;;;;;;9.73;8.02;;;26.30;99.90;;;;;;6238890;28;89113;-68
2023/08/22 09:36:20;;;;;;;8.52;7.70;;;26.30;99.90;;;;;;6239894;28;89098;-68
2023/08/22 09:39:23;;;;;;;8.43;7.57;;;26.30;99.90;;;;;;6241053;28;89119;-67
2023/08/22 09:42:29;;;;;;;8.45;7.60;;;26.30;99.90;;;;;;6245908;27;89873;-68
2023/08/22 09:45:33;;;;;;;8.43;7.63;;;26.30;99.90;;;;;;6247489;28;89172;-68
2023/08/22 09:48:38;;;;;;;8.70;7.80;;;26.30;99.90;;;;;;6238240;28;89378;-68
2023/08/22 09:51:41;;;;;;;8.73;7.32;;;26.30;99.90;;;;;;6241146;27;87395;-68
2023/08/22 09:54:44;;;;;;;8.00;7.30;;;26.40;99.90;;;;;;6236299;28;89044;-68
2023/08/22 09:57:47;;;;;;;8.30;7.50;;;26.30;99.90;;;;;;6256919;27;89108;-68
2023/08/22 10:00:52;;;;;;;8.13;7.40;;;26.40;99.90;;;;;;6246101;28;90012;-68
2023/08/22 10:03:54;;;;;;;8.13;7.32;;;26.30;99.90;;;;;;6253829;28;89451;-68
2023/08/22 10:06:56;;;;;;;7.88;7.13;;;26.40;99.90;;;;;;6236926;28;89071;-69
2023/08/22 10:09:59;;;;;;;7.75;7.10;;;26.40;99.90;;;;;;6242905;28;89166;-69
2023/08/22 10:13:03;;;;;;;8.18;7.38;;;26.40;99.90;;;;;;6242208;28;89353;-69
2023/08/22 10:16:06;;;;;;;9.85;8.93;;;26.40;99.90;;;;;;6240282;28;88979;-68
2023/08/22 10:19:09;;;;;;;10.88;9.73;;;26.40;99.90;;;;;;6237042;28;89401;-69
2023/08/22 10:22:13;;;;;;;35.63;17.05;;;26.50;99.90;;;;;;6245944;27;88416;-71
2023/08/22 10:25:15;;;;;;;14.50;10.32;;;26.50;99.90;;;;;;6240828;28;89075;-70
2023/08/22 10:28:18;;;;;;;14.23;10.38;;;26.60;99.90;;;;;;6241341;28;89116;-70
2023/08/22 10:31:21;;;;;;;14.38;10.00;;;26.70;99.90;;;;;;6234806;28;90025;-69
2023/08/22 10:34:23;;;;;;;13.15;9.75;;;26.80;99.90;;;;;;6234565;28;89525;-69
2023/08/22 10:37:27;;;;;;;10.93;8.95;;;26.90;99.90;;;;;;6238945;28;89108;-68
2023/08/22 10:40:34;;;;;;;10.32;9.25;;;27.00;99.90;;;;;;6252149;28;87971;-68
2023/08/22 10:43:37;;;;;;;10.27;8.63;;;27.00;99.90;;;;;;6251139;28;88951;-68
2023/08/22 10:46:59;;;;;;;9.77;8.77;;;27.00;99.90;;;;;;6238286;28;89444;-68
2023/08/22 10:50:03;;;;;;;11.52;8.93;;;27.00;99.90;;;;;;6234884;28;88946;-68
2023/08/22 10:53:20;;;;;;;9.55;8.55;;;27.10;99.90;;;;;;6233241;28;88597;-69
2023/08/22 10:56:24;;;;;;;10.38;9.00;;;27.10;99.90;;;;;;6233688;28;89247;-69
2023/08/22 10:59:26;;;;;;;10.55;8.77;;;27.10;99.90;;;;;;6233441;28;89067;-69
2023/08/22 11:02:31;;;;;;;9.77;8.57;;;27.10;99.90;;;;;;6245983;28;90106;-68
2023/08/22 11:05:34;;;;;;;9.60;8.63;;;27.10;99.90;;;;;;6243174;27;89505;-68
2023/08/22 11:08:36;;;;;;;10.32;8.40;;;27.20;99.90;;;;;;6245952;28;88499;-69
2023/08/22 11:11:39;;;;;;;10.20;8.70;;;27.20;99.90;;;;;;6246347;28;89083;-68
2023/08/22 11:14:45;;;;;;;9.57;8.30;;;27.20;99.90;;;;;;6242337;27;89079;-69
2023/08/22 11:17:50;;;;;;;9.20;8.25;;;27.20;99.90;;;;;;6239622;28;88964;-68
2023/08/22 11:20:55;;;;;;;9.38;8.48;;;27.20;99.90;;;;;;6240836;27;89038;-69
2023/08/22 11:23:58;;;;;;;9.35;8.38;;;27.20;99.90;;;;;;6238805;28;88289;-69
2023/08/22 11:27:03;;;;;;;9.20;8.30;;;27.20;99.90;;;;;;6236069;28;89076;-69
2023/08/22 11:30:07;;;;;;;9.38;8.43;;;27.20;99.90;;;;;;6243114;28;89366;-68
2023/08/22 11:33:19;;;;;;;9.90;8.90;;;27.20;99.90;;;;;;6239230;28;89642;-69
2023/08/22 11:36:21;;;;;;;9.32;8.43;;;27.20;99.90;;;;;;6238334;28;89200;-68
2023/08/22 11:39:23;;;;;;;9.02;8.15;;;27.20;99.90;;;;;;6232908;28;90435;-68
2023/08/22 11:42:27;;;;;;;8.43;7.63;;;27.20;99.90;;;;;;6240463;28;88079;-68
2023/08/22 11:45:29;;;;;;;9.50;8.60;;;27.20;99.90;;;;;;6231970;28;89101;-68
2023/08/22 11:48:33;;;;;;;8.82;8.00;;;27.20;99.90;;;;;;6235152;28;89747;-69
2023/08/22 11:51:35;;;;;;;8.88;7.95;;;27.20;99.90;;;;;;6250008;27;89197;-69
2023/08/22 11:54:43;;;;;;;8.52;7.63;;;27.20;99.90;;;;;;6234218;28;88323;-68
2023/08/22 11:57:45;;;;;;;8.60;7.78;;;27.20;99.90;;;;;;6247937;28;89058;-69
2023/08/22 12:00:47;;;;;;;10.50;8.27;;;27.20;99.90;;;;;;6245518;28;89181;-68
2023/08/22 12:03:55;;;;;;;8.20;7.40;;;27.10;99.90;;;;;;6242019;27;92227;-68
2023/08/22 12:07:00;;;;;;;8.13;7.32;;;27.20;99.90;;;;;;6241620;28;88999;-68
2023/08/22 12:10:05;;;;;;;8.73;7.93;;;27.10;99.90;;;;;;6247837;27;89100;-68
2023/08/22 12:13:08;;;;;;;8.45;7.65;;;27.10;99.90;;;;;;6243129;28;89051;-68
2023/08/22 12:16:10;;;;;;;8.48;7.65;;;27.20;99.90;;;;;;6232612;28;88070;-68
2023/08/22 12:19:14;;;;;;;8.75;7.88;;;27.10;99.90;;;;;;6237065;28;89094;-68
2023/08/22 12:22:16;;;;;;;8.55;7.80;;;27.10;99.90;;;;;;6241662;28;89891;-68
2023/08/22 12:25:19;;;;;;;8.07;7.38;;;27.10;99.90;;;;;;6234801;28;88475;-68
2023/08/22 12:28:21;;;;;;;8.02;7.32;;;27.10;99.90;;;;;;6241019;28;89237;-68
2023/08/22 12:31:23;;;;;;;8.63;7.82;;;27.10;99.90;;;;;;6237526;27;88140;-68
2023/08/22 12:34:27;;;;;;;8.95;8.15;;;27.00;99.90;;;;;;6242343;28;90024;-68
2023/08/22 12:37:29;;;;;;;8.63;7.50;;;27.10;99.90;;;;;;6251649;28;89054;-68
2023/08/22 12:40:31;;;;;;;8.93;8.05;;;27.00;99.90;;;;;;6228935;28;89080;-68
2023/08/22 12:43:33;;;;;;;8.30;7.50;;;27.00;99.90;;;;;;6234099;28;89008;-68
2023/08/22 12:46:35;;;;;;;8.02;7.30;;;27.00;99.90;;;;;;6243944;28;87929;-68
2023/08/22 12:49:39;;;;;;;8.20;7.43;;;27.00;99.90;;;;;;6237905;28;89068;-68
2023/08/22 12:52:41;;;;;;;7.68;7.03;;;27.00;99.90;;;;;;6232044;28;89073;-68
2023/08/22 12:55:44;;;;;;;7.68;6.97;;;27.00;99.90;;;;;;6231203;28;88347;-69
2023/08/22 12:58:46;;;;;;;7.90;7.20;;;27.00;99.90;;;;;;6249515;27;89561;-68
2023/08/22 13:01:48;;;;;;;7.90;7.10;;;27.00;99.90;;;;;;6240233;28;89087;-68
2023/08/22 13:04:51;;;;;;;7.88;7.07;;;27.00;99.90;;;;;;6251175;27;90036;-68
2023/08/22 13:07:53;;;;;;;7.97;7.28;;;27.00;99.90;;;;;;6241531;28;89436;-69
2023/08/22 13:10:55;;;;;;;8.25;7.40;;;27.00;99.90;;;;;;6240970;28;89160;-69
2023/08/22 13:13:57;;;;;;;8.65;7.85;;;27.00;99.90;;;;;;6231500;28;89244;-69
2023/08/22 13:16:59;;;;;;;8.02;7.30;;;26.90;99.90;;;;;;6231142;28;89188;-69
2023/08/22 13:20:03;;;;;;;8.93;7.57;;;26.90;99.90;;;;;;6232591;28;89043;-68
2023/08/22 13:23:05;;;;;;;8.07;7.32;;;26.90;99.90;;;;;;6254052;27;89535;-68
2023/08/22 13:26:07;;;;;;;7.97;7.20;;;27.00;99.90;;;;;;6250818;27;88724;-68
2023/08/22 13:29:09;;;;;;;8.73;7.65;;;27.00;99.90;;;;;;6242231;27;89048;-68
2023/08/22 13:32:11;;;;;;;8.48;7.70;;;26.90;99.90;;;;;;6254672;27;89185;-68
2023/08/22 13:35:15;;;;;;;8.55;7.40;;;26.90;99.90;;;;;;6235387;27;90129;-68
2023/08/22 13:38:17;;;;;;;8.02;7.22;;;26.90;99.90;;;;;;6237409;27;89051;-68
2023/08/22 13:41:19;;;;;;;8.07;7.30;;;26.90;99.90;;;;;;6247005;27;89105;-68
2023/08/22 13:44:21;;;;;;;8.02;7.25;;;27.00;99.90;;;;;;6236750;27;89323;-68
2023/08/22 13:47:24;;;;;;;8.30;7.47;;;26.90;99.90;;;;;;6241256;27;89345;-69
2023/08/22 13:50:28;;;;;;;8.20;7.50;;;26.90;99.90;;;;;;6238836;27;89253;-69
2023/08/22 13:53:31;;;;;;;7.30;6.63;;;26.90;99.90;;;;;;6230179;27;88582;-68
2023/08/22 13:56:33;;;;;;;7.85;7.15;;;26.90;99.90;;;;;;6245418;27;88362;-68
2023/08/22 13:59:35;;;;;;;7.75;6.95;;;26.90;99.90;;;;;;6252681;27;88977;-68
2023/08/22 14:02:37;;;;;;;7.68;6.97;;;26.90;99.90;;;;;;6254345;27;89126;-68
2023/08/22 14:05:41;;;;;;;7.55;6.78;;;26.90;99.90;;;;;;6238996;27;90027;-69
2023/08/22 14:08:43;;;;;;;7.82;7.13;;;26.90;99.90;;;;;;6251710;27;89100;-69
2023/08/22 14:11:45;;;;;;;7.53;6.90;;;26.90;99.90;;;;;;6248727;27;89470;-69
2023/08/22 14:14:47;;;;;;;7.60;6.90;;;26.90;99.90;;;;;;6238300;27;88416;-68
2023/08/22 14:17:49;;;;;;;7.82;7.03;;;26.90;99.90;;;;;;6247303;27;89132;-68
2023/08/22 14:20:52;;;;;;;7.20;6.60;;;26.90;99.90;;;;;;6239189;27;89163;-69
2023/08/22 14:23:54;;;;;;;7.50;6.90;;;26.90;99.90;;;;;;6237260;28;89020;-68
2023/08/22 14:26:56;;;;;;;7.53;6.82;;;26.90;99.90;;;;;;6232967;27;88310;-69
2023/08/22 14:29:58;;;;;;;7.63;7.00;;;26.90;99.90;;;;;;6249047;28;89083;-68
2023/08/22 14:33:00;;;;;;;7.28;6.68;;;26.90;99.90;;;;;;6239660;28;89093;-69
2023/08/22 14:36:06;;;;;;;7.93;7.22;;;26.90;99.90;;;;;;6238289;28;90049;-69
2023/08/22 14:39:08;;;;;;;7.45;6.82;;;26.90;99.90;;;;;;6233898;28;89141;-68
2023/08/22 14:42:10;;;;;;;7.70;7.00;;;26.90;99.90;;;;;;6239817;28;89093;-69
2023/08/22 14:45:12;;;;;;;7.05;6.45;;;26.90;99.90;;;;;;6242758;28;89095;-68
2023/08/22 14:48:14;;;;;;;7.65;6.95;;;26.90;99.90;;;;;;6257796;27;89051;-68
2023/08/22 14:51:18;;;;;;;7.50;6.90;;;26.90;99.90;;;;;;6247725;27;89111;-69
2023/08/22 14:54:20;;;;;;;7.05;6.45;;;26.90;99.90;;;;;;6246144;28;88168;-68
2023/08/22 14:57:23;;;;;;;7.32;6.68;;;26.90;99.90;;;;;;6244112;28;89301;-69
2023/08/22 15:00:27;;;;;;;6.85;6.30;;;26.90;99.90;;;;;;6234731;27;89339;-68
2023/08/22 15:03:29;;;;;;;7.65;6.97;;;26.90;99.90;;;;;;6246034;27;89308;-69
2023/08/22 15:06:33;;;;;;;7.28;6.60;;;26.90;99.90;;;;;;6239312;28;89110;-68
2023/08/22 15:09:34;;;;;;;7.50;6.80;;;26.90;99.90;;;;;;6244139;28;88019;-69
2023/08/22 15:12:36;;;;;;;7.43;6.72;;;26.90;99.90;;;;;;6250388;27;89059;-69
2023/08/22 15:15:38;;;;;;;7.15;6.45;;;26.90;99.90;;;;;;6241488;28;89125;-68
2023/08/22 15:18:40;;;;;;;7.47;6.78;;;26.90;99.90;;;;;;6233531;28;89004;-68
2023/08/22 15:21:44;;;;;;;7.20;6.60;;;26.90;99.90;;;;;;6234339;28;89019;-68
2023/08/22 15:24:46;;;;;;;6.95;6.32;;;26.90;99.90;;;;;;6233259;28;88971;-68
2023/08/22 15:27:49;;;;;;;6.95;6.35;;;26.90;99.90;;;;;;6255290;27;88641;-69
2023/08/22 15:30:56;;;;;;;6.90;6.30;;;26.90;99.90;;;;;;6255177;28;88079;-68
2023/08/22 15:33:58;;;;;;;7.15;6.55;;;26.90;99.90;;;;;;6243371;27;89028;-69
2023/08/22 15:37:02;;;;;;;7.07;6.47;;;26.90;99.90;;;;;;6236335;27;90149;-68
2023/08/22 15:40:06;;;;;;;7.72;6.40;;;26.90;99.90;;;;;;6237235;28;88989;-68
2023/08/22 15:43:08;;;;;;;6.97;6.38;;;26.90;99.90;;;;;;6249266;28;89197;-68
2023/08/22 15:46:10;;;;;;;6.95;6.45;;;26.90;99.90;;;;;;6232697;28;89047;-68
2023/08/22 15:49:12;;;;;;;7.00;6.43;;;27.00;99.90;;;;;;6242568;28;88631;-68